sensor_id;sensor_type;location;lat;lon;timestamp;pressure;altitude;pressure_sealevel;temperature;humidity
45991;BME280;31721;41.740;-88.000;2022-11-20T00:00:03;99414.40;;;-5.36;38.58
45991;BME280;31721;41.740;-88.000;2022-11-20T00:02:31;99419.09;;;-5.50;38.47
45991;BME280;31721;41.740;-88.000;2022-11-20T00:04:58;99425.47;;;-5.42;38.92
45991;BME280;31721;41.740;-88.000;2022-11-20T00:07:26;99424.67;;;-5.40;38.30
45991;BME280;31721;41.740;-88.000;2022-11-20T00:09:54;99428.57;;;-5.37;39.44
45991;BME280;31721;41.740;-88.000;2022-11-20T00:12:22;99433.93;;;-5.09;39.08
45991;BME280;31721;41.740;-88.000;2022-11-20T00:14:50;99441.83;;;-5.07;39.29
45991;BME280;31721;41.740;-88.000;2022-11-20T00:17:17;99442.84;;;-5.12;39.42
45991;BME280;31721;41.740;-88.000;2022-11-20T00:19:46;99447.26;;;-5.09;39.32
45991;BME280;31721;41.740;-88.000;2022-11-20T00:22:14;99459.16;;;-5.08;38.86
45991;BME280;31721;41.740;-88.000;2022-11-20T00:24:42;99467.52;;;-5.37;38.02
45991;BME280;31721;41.740;-88.000;2022-11-20T00:27:10;99469.11;;;-5.19;38.83
45991;BME280;31721;41.740;-88.000;2022-11-20T00:29:37;99476.31;;;-6.20;38.26
45991;BME280;31721;41.740;-88.000;2022-11-20T00:32:05;99477.47;;;-5.94;38.89
45991;BME280;31721;41.740;-88.000;2022-11-20T00:34:33;99478.87;;;-5.75;39.18
45991;BME280;31721;41.740;-88.000;2022-11-20T00:37:01;99485.34;;;-5.28;38.71
45991;BME280;31721;41.740;-88.000;2022-11-20T00:39:29;99486.85;;;-5.80;38.50
45991;BME280;31721;41.740;-88.000;2022-11-20T00:41:57;99487.17;;;-5.39;38.71
45991;BME280;31721;41.740;-88.000;2022-11-20T00:44:25;99494.92;;;-5.64;38.65
45991;BME280;31721;41.740;-88.000;2022-11-20T00:46:52;99493.25;;;-5.54;38.77
45991;BME280;31721;41.740;-88.000;2022-11-20T00:49:20;99503.68;;;-5.93;38.68
45991;BME280;31721;41.740;-88.000;2022-11-20T00:51:48;99505.22;;;-5.92;38.63
45991;BME280;31721;41.740;-88.000;2022-11-20T00:54:16;99510.85;;;-5.78;39.05
45991;BME280;31721;41.740;-88.000;2022-11-20T00:56:44;99510.69;;;-5.66;38.96
45991;BME280;31721;41.740;-88.000;2022-11-20T00:59:12;99511.27;;;-5.55;38.69
45991;BME280;31721;41.740;-88.000;2022-11-20T01:01:40;99525.73;;;-5.91;38.61
45991;BME280;31721;41.740;-88.000;2022-11-20T01:04:08;99519.60;;;-5.63;38.69
45991;BME280;31721;41.740;-88.000;2022-11-20T01:06:37;99524.03;;;-6.58;37.52
45991;BME280;31721;41.740;-88.000;2022-11-20T01:09:07;99531.93;;;-6.61;37.76
45991;BME280;31721;41.740;-88.000;2022-11-20T01:11:38;99535.24;;;-6.38;38.16
45991;BME280;31721;41.740;-88.000;2022-11-20T01:14:10;99533.19;;;-6.41;38.61
45991;BME280;31721;41.740;-88.000;2022-11-20T01:16:40;99543.57;;;-6.44;37.14
45991;BME280;31721;41.740;-88.000;2022-11-20T01:19:12;99550.21;;;-6.90;37.85
45991;BME280;31721;41.740;-88.000;2022-11-20T01:21:42;99550.65;;;-6.35;37.96
45991;BME280;31721;41.740;-88.000;2022-11-20T01:24:12;99543.71;;;-6.46;38.28
45991;BME280;31721;41.740;-88.000;2022-11-20T01:26:42;99558.21;;;-7.02;37.28
45991;BME280;31721;41.740;-88.000;2022-11-20T01:29:13;99566.55;;;-6.28;38.42
45991;BME280;31721;41.740;-88.000;2022-11-20T01:31:42;99571.60;;;-6.21;38.15
45991;BME280;31721;41.740;-88.000;2022-11-20T01:34:12;99575.82;;;-6.30;38.49
45991;BME280;31721;41.740;-88.000;2022-11-20T01:36:42;99574.68;;;-6.23;37.54
45991;BME280;31721;41.740;-88.000;2022-11-20T01:39:12;99584.47;;;-6.38;38.41
45991;BME280;31721;41.740;-88.000;2022-11-20T01:41:41;99586.25;;;-6.42;38.50
45991;BME280;31721;41.740;-88.000;2022-11-20T01:44:12;99600.63;;;-6.32;38.39
45991;BME280;31721;41.740;-88.000;2022-11-20T01:46:43;99582.41;;;-6.92;37.48
45991;BME280;31721;41.740;-88.000;2022-11-20T01:49:18;99590.80;;;-6.94;37.84
45991;BME280;31721;41.740;-88.000;2022-11-20T01:51:52;99588.61;;;-6.73;38.49
45991;BME280;31721;41.740;-88.000;2022-11-20T01:54:22;99594.53;;;-6.68;38.61
45991;BME280;31721;41.740;-88.000;2022-11-20T01:56:54;99595.50;;;-7.30;38.78
45991;BME280;31721;41.740;-88.000;2022-11-20T01:59:26;99601.37;;;-6.92;38.81
45991;BME280;31721;41.740;-88.000;2022-11-20T02:01:55;99605.05;;;-7.14;38.24
45991;BME280;31721;41.740;-88.000;2022-11-20T02:04:23;99609.46;;;-6.85;39.11
45991;BME280;31721;41.740;-88.000;2022-11-20T02:06:56;99614.18;;;-6.74;39.13
45991;BME280;31721;41.740;-88.000;2022-11-20T02:09:27;99624.07;;;-6.66;38.86
45991;BME280;31721;41.740;-88.000;2022-11-20T02:11:55;99623.49;;;-6.90;38.60
45991;BME280;31721;41.740;-88.000;2022-11-20T02:14:24;99633.74;;;-6.85;38.85
45991;BME280;31721;41.740;-88.000;2022-11-20T02:16:54;99626.39;;;-6.61;39.18
45991;BME280;31721;41.740;-88.000;2022-11-20T02:19:24;99633.78;;;-6.70;39.54
45991;BME280;31721;41.740;-88.000;2022-11-20T02:21:59;99636.49;;;-6.67;39.32
45991;BME280;31721;41.740;-88.000;2022-11-20T02:24:28;99640.10;;;-6.66;38.99
45991;BME280;31721;41.740;-88.000;2022-11-20T02:26:59;99641.93;;;-6.94;39.10
45991;BME280;31721;41.740;-88.000;2022-11-20T02:29:32;99640.60;;;-7.24;39.76
45991;BME280;31721;41.740;-88.000;2022-11-20T02:32:02;99641.63;;;-6.92;39.33
45991;BME280;31721;41.740;-88.000;2022-11-20T02:34:31;99646.43;;;-6.93;39.31
45991;BME280;31721;41.740;-88.000;2022-11-20T02:36:59;99649.63;;;-7.11;39.54
45991;BME280;31721;41.740;-88.000;2022-11-20T02:39:28;99654.74;;;-6.93;39.45
45991;BME280;31721;41.740;-88.000;2022-11-20T02:41:57;99661.51;;;-7.63;39.03
45991;BME280;31721;41.740;-88.000;2022-11-20T02:44:24;99663.24;;;-7.26;39.35
45991;BME280;31721;41.740;-88.000;2022-11-20T02:46:52;99666.42;;;-7.68;39.70
45991;BME280;31721;41.740;-88.000;2022-11-20T02:49:20;99670.73;;;-7.86;39.88
45991;BME280;31721;41.740;-88.000;2022-11-20T02:51:48;99672.04;;;-7.54;39.80
45991;BME280;31721;41.740;-88.000;2022-11-20T02:54:16;99679.80;;;-7.47;39.98
45991;BME280;31721;41.740;-88.000;2022-11-20T02:56:43;99684.97;;;-7.35;39.47
45991;BME280;31721;41.740;-88.000;2022-11-20T02:59:12;99694.21;;;-7.59;39.67
45991;BME280;31721;41.740;-88.000;2022-11-20T03:01:39;99698.65;;;-7.70;39.98
45991;BME280;31721;41.740;-88.000;2022-11-20T03:04:07;99700.82;;;-7.40;39.86
45991;BME280;31721;41.740;-88.000;2022-11-20T03:06:35;99707.13;;;-7.77;39.85
45991;BME280;31721;41.740;-88.000;2022-11-20T03:09:03;99713.95;;;-7.59;39.87
45991;BME280;31721;41.740;-88.000;2022-11-20T03:11:31;99716.52;;;-7.57;39.82
45991;BME280;31721;41.740;-88.000;2022-11-20T03:14:02;99721.78;;;-7.90;40.38
45991;BME280;31721;41.740;-88.000;2022-11-20T03:16:31;99727.04;;;-7.79;40.24
45991;BME280;31721;41.740;-88.000;2022-11-20T03:19:00;99734.57;;;-7.63;39.98
45991;BME280;31721;41.740;-88.000;2022-11-20T03:21:28;99742.88;;;-7.61;40.11
45991;BME280;31721;41.740;-88.000;2022-11-20T03:23:56;99747.35;;;-7.98;39.92
45991;BME280;31721;41.740;-88.000;2022-11-20T03:26:25;99755.45;;;-7.61;40.40
45991;BME280;31721;41.740;-88.000;2022-11-20T03:28:55;99755.82;;;-7.50;40.08
45991;BME280;31721;41.740;-88.000;2022-11-20T03:31:25;99758.30;;;-7.50;39.78
45991;BME280;31721;41.740;-88.000;2022-11-20T03:33:55;99758.73;;;-7.90;39.87
45991;BME280;31721;41.740;-88.000;2022-11-20T03:36:24;99762.45;;;-8.01;40.37
45991;BME280;31721;41.740;-88.000;2022-11-20T03:38:53;99764.36;;;-8.05;40.56
45991;BME280;31721;41.740;-88.000;2022-11-20T03:41:23;99764.30;;;-7.57;39.98
45991;BME280;31721;41.740;-88.000;2022-11-20T03:43:53;99778.51;;;-8.10;40.43
45991;BME280;31721;41.740;-88.000;2022-11-20T03:46:21;99775.94;;;-7.56;40.07
45991;BME280;31721;41.740;-88.000;2022-11-20T03:48:49;99779.96;;;-7.61;40.03
45991;BME280;31721;41.740;-88.000;2022-11-20T03:51:18;99777.28;;;-7.53;40.12
45991;BME280;31721;41.740;-88.000;2022-11-20T03:53:47;99779.14;;;-7.62;39.98
45991;BME280;31721;41.740;-88.000;2022-11-20T03:56:16;99776.64;;;-7.77;40.13
45991;BME280;31721;41.740;-88.000;2022-11-20T03:58:44;99776.80;;;-7.61;39.96
45991;BME280;31721;41.740;-88.000;2022-11-20T04:01:15;99783.63;;;-7.80;40.04
45991;BME280;31721;41.740;-88.000;2022-11-20T04:03:44;99783.87;;;-7.89;40.52
45991;BME280;31721;41.740;-88.000;2022-11-20T04:06:15;99785.29;;;-7.99;40.34
45991;BME280;31721;41.740;-88.000;2022-11-20T04:08:43;99788.41;;;-8.26;40.46
45991;BME280;31721;41.740;-88.000;2022-11-20T04:11:13;99785.30;;;-7.88;40.69
45991;BME280;31721;41.740;-88.000;2022-11-20T04:13:42;99787.05;;;-7.76;40.52
45991;BME280;31721;41.740;-88.000;2022-11-20T04:16:10;99792.00;;;-7.89;40.33
45991;BME280;31721;41.740;-88.000;2022-11-20T04:18:38;99795.40;;;-7.89;40.56
45991;BME280;31721;41.740;-88.000;2022-11-20T04:21:07;99798.89;;;-7.81;40.51
45991;BME280;31721;41.740;-88.000;2022-11-20T04:23:35;99798.23;;;-7.78;40.72
45991;BME280;31721;41.740;-88.000;2022-11-20T04:26:04;99800.53;;;-7.99;40.65
45991;BME280;31721;41.740;-88.000;2022-11-20T04:28:31;99802.51;;;-8.49;41.08
45991;BME280;31721;41.740;-88.000;2022-11-20T04:31:03;99807.63;;;-8.12;41.36
45991;BME280;31721;41.740;-88.000;2022-11-20T04:33:32;99812.21;;;-8.01;40.92
45991;BME280;31721;41.740;-88.000;2022-11-20T04:36:03;99813.15;;;-8.23;40.75
45991;BME280;31721;41.740;-88.000;2022-11-20T04:38:32;99815.13;;;-8.38;40.87
45991;BME280;31721;41.740;-88.000;2022-11-20T04:41:02;99816.80;;;-8.15;41.24
45991;BME280;31721;41.740;-88.000;2022-11-20T04:43:31;99824.22;;;-8.60;41.54
45991;BME280;31721;41.740;-88.000;2022-11-20T04:46:00;99822.13;;;-8.51;41.13
45991;BME280;31721;41.740;-88.000;2022-11-20T04:51:27;99825.81;;;-8.46;41.27
45991;BME280;31721;41.740;-88.000;2022-11-20T04:53:55;99825.68;;;-8.58;41.59
45991;BME280;31721;41.740;-88.000;2022-11-20T04:56:23;99830.72;;;-8.57;41.40
45991;BME280;31721;41.740;-88.000;2022-11-20T04:58:52;99829.02;;;-8.56;41.45
45991;BME280;31721;41.740;-88.000;2022-11-20T05:01:22;99833.44;;;-8.51;41.51
45991;BME280;31721;41.740;-88.000;2022-11-20T05:03:50;99834.42;;;-8.47;41.29
45991;BME280;31721;41.740;-88.000;2022-11-20T05:06:20;99836.53;;;-8.44;41.38
45991;BME280;31721;41.740;-88.000;2022-11-20T05:08:49;99840.03;;;-8.22;41.40
45991;BME280;31721;41.740;-88.000;2022-11-20T05:11:18;99842.52;;;-8.21;41.41
45991;BME280;31721;41.740;-88.000;2022-11-20T05:13:47;99841.89;;;-8.36;41.09
45991;BME280;31721;41.740;-88.000;2022-11-20T05:16:18;99843.23;;;-8.68;41.66
45991;BME280;31721;41.740;-88.000;2022-11-20T05:18:45;99842.74;;;-8.83;41.84
45991;BME280;31721;41.740;-88.000;2022-11-20T05:21:13;99850.63;;;-8.48;41.88
45991;BME280;31721;41.740;-88.000;2022-11-20T05:23:42;99857.39;;;-8.27;41.63
45991;BME280;31721;41.740;-88.000;2022-11-20T05:26:15;99859.75;;;-8.45;41.82
45991;BME280;31721;41.740;-88.000;2022-11-20T05:28:43;99860.71;;;-8.38;41.79
45991;BME280;31721;41.740;-88.000;2022-11-20T05:31:13;99867.02;;;-8.71;42.22
45991;BME280;31721;41.740;-88.000;2022-11-20T05:33:42;99870.99;;;-8.35;41.47
45991;BME280;31721;41.740;-88.000;2022-11-20T05:36:12;99874.69;;;-8.31;41.41
45991;BME280;31721;41.740;-88.000;2022-11-20T05:38:41;99872.04;;;-8.57;41.39
45991;BME280;31721;41.740;-88.000;2022-11-20T05:41:11;99878.25;;;-9.04;41.99
45991;BME280;31721;41.740;-88.000;2022-11-20T05:43:40;99876.23;;;-8.56;41.90
45991;BME280;31721;41.740;-88.000;2022-11-20T05:46:11;99874.99;;;-8.53;41.72
45991;BME280;31721;41.740;-88.000;2022-11-20T05:48:40;99879.25;;;-8.56;41.68
45991;BME280;31721;41.740;-88.000;2022-11-20T05:51:11;99879.20;;;-8.80;41.80
45991;BME280;31721;41.740;-88.000;2022-11-20T05:53:39;99888.48;;;-9.09;41.93
45991;BME280;31721;41.740;-88.000;2022-11-20T05:56:08;99886.26;;;-8.79;42.12
45991;BME280;31721;41.740;-88.000;2022-11-20T05:58:37;99884.47;;;-8.75;41.80
45991;BME280;31721;41.740;-88.000;2022-11-20T06:01:07;99885.72;;;-9.01;41.92
45991;BME280;31721;41.740;-88.000;2022-11-20T06:03:36;99884.92;;;-8.62;42.22
45991;BME280;31721;41.740;-88.000;2022-11-20T06:06:05;99890.02;;;-8.81;42.09
45991;BME280;31721;41.740;-88.000;2022-11-20T06:08:33;99887.72;;;-8.88;42.27
45991;BME280;31721;41.740;-88.000;2022-11-20T06:11:04;99888.27;;;-8.77;42.26
45991;BME280;31721;41.740;-88.000;2022-11-20T06:13:32;99892.22;;;-8.62;42.23
45991;BME280;31721;41.740;-88.000;2022-11-20T06:16:00;99891.60;;;-8.78;42.00
45991;BME280;31721;41.740;-88.000;2022-11-20T06:18:28;99893.35;;;-8.95;42.16
45991;BME280;31721;41.740;-88.000;2022-11-20T06:21:02;99896.39;;;-8.77;42.33
45991;BME280;31721;41.740;-88.000;2022-11-20T06:23:31;99893.60;;;-8.47;42.24
45991;BME280;31721;41.740;-88.000;2022-11-20T06:26:02;99895.61;;;-9.01;42.08
45991;BME280;31721;41.740;-88.000;2022-11-20T06:28:29;99898.78;;;-8.85;42.42
45991;BME280;31721;41.740;-88.000;2022-11-20T06:30:58;99900.14;;;-8.77;42.04
45991;BME280;31721;41.740;-88.000;2022-11-20T06:33:26;99903.98;;;-8.88;42.03
45991;BME280;31721;41.740;-88.000;2022-11-20T06:35:56;99904.24;;;-8.69;42.23
45991;BME280;31721;41.740;-88.000;2022-11-20T06:38:24;99905.09;;;-8.69;42.49
45991;BME280;31721;41.740;-88.000;2022-11-20T06:40:52;99899.48;;;-8.62;42.32
45991;BME280;31721;41.740;-88.000;2022-11-20T06:43:21;99900.91;;;-8.52;42.20
45991;BME280;31721;41.740;-88.000;2022-11-20T06:45:52;99903.18;;;-8.50;42.22
45991;BME280;31721;41.740;-88.000;2022-11-20T06:48:19;99905.71;;;-8.38;42.22
45991;BME280;31721;41.740;-88.000;2022-11-20T06:50:47;99908.13;;;-8.43;42.13
45991;BME280;31721;41.740;-88.000;2022-11-20T06:53:16;99913.66;;;-8.13;41.96
45991;BME280;31721;41.740;-88.000;2022-11-20T06:55:44;99914.84;;;-8.45;41.88
45991;BME280;31721;41.740;-88.000;2022-11-20T06:58:13;99919.29;;;-8.19;41.88
45991;BME280;31721;41.740;-88.000;2022-11-20T07:00:42;99917.72;;;-8.23;41.65
45991;BME280;31721;41.740;-88.000;2022-11-20T07:03:11;99917.13;;;-8.31;41.75
45991;BME280;31721;41.740;-88.000;2022-11-20T07:05:39;99914.79;;;-8.21;41.86
45991;BME280;31721;41.740;-88.000;2022-11-20T07:08:07;99916.18;;;-8.32;41.82
45991;BME280;31721;41.740;-88.000;2022-11-20T07:10:35;99919.48;;;-8.51;41.79
45991;BME280;31721;41.740;-88.000;2022-11-20T07:13:03;99923.06;;;-8.44;41.87
45991;BME280;31721;41.740;-88.000;2022-11-20T07:15:31;99927.48;;;-8.46;42.02
45991;BME280;31721;41.740;-88.000;2022-11-20T07:17:59;99930.08;;;-8.37;41.83
45991;BME280;31721;41.740;-88.000;2022-11-20T07:20:27;99936.75;;;-8.67;41.83
45991;BME280;31721;41.740;-88.000;2022-11-20T07:22:55;99939.26;;;-8.52;41.87
45991;BME280;31721;41.740;-88.000;2022-11-20T07:25:23;99940.68;;;-8.60;42.06
45991;BME280;31721;41.740;-88.000;2022-11-20T07:27:51;99941.08;;;-8.21;41.79
45991;BME280;31721;41.740;-88.000;2022-11-20T07:30:19;99940.46;;;-8.09;41.65
45991;BME280;31721;41.740;-88.000;2022-11-20T07:32:47;99939.75;;;-8.29;41.69
45991;BME280;31721;41.740;-88.000;2022-11-20T07:35:17;99942.88;;;-8.20;41.68
45991;BME280;31721;41.740;-88.000;2022-11-20T07:37:46;99935.87;;;-8.37;41.58
45991;BME280;31721;41.740;-88.000;2022-11-20T07:40:14;99943.47;;;-8.56;41.43
45991;BME280;31721;41.740;-88.000;2022-11-20T07:42:48;99949.16;;;-8.49;41.59
45991;BME280;31721;41.740;-88.000;2022-11-20T07:45:16;99958.24;;;-8.32;41.80
45991;BME280;31721;41.740;-88.000;2022-11-20T07:47:44;99959.56;;;-8.47;41.70
45991;BME280;31721;41.740;-88.000;2022-11-20T07:50:12;99961.64;;;-8.49;41.88
45991;BME280;31721;41.740;-88.000;2022-11-20T07:52:40;99960.62;;;-8.65;41.96
45991;BME280;31721;41.740;-88.000;2022-11-20T07:55:09;99963.32;;;-8.35;41.86
45991;BME280;31721;41.740;-88.000;2022-11-20T07:57:38;99969.39;;;-8.45;41.87
45991;BME280;31721;41.740;-88.000;2022-11-20T08:00:07;99968.52;;;-8.33;41.71
45991;BME280;31721;41.740;-88.000;2022-11-20T08:02:37;99971.37;;;-8.40;41.98
45991;BME280;31721;41.740;-88.000;2022-11-20T08:05:05;99971.37;;;-8.40;41.93
45991;BME280;31721;41.740;-88.000;2022-11-20T08:07:36;99969.97;;;-8.61;41.92
45991;BME280;31721;41.740;-88.000;2022-11-20T08:10:04;99972.84;;;-8.47;41.94
45991;BME280;31721;41.740;-88.000;2022-11-20T08:12:32;99969.85;;;-8.45;42.09
45991;BME280;31721;41.740;-88.000;2022-11-20T08:15:01;99970.27;;;-8.68;42.05
45991;BME280;31721;41.740;-88.000;2022-11-20T08:17:29;99971.82;;;-8.44;41.97
45991;BME280;31721;41.740;-88.000;2022-11-20T08:19:57;99971.67;;;-8.47;42.02
45991;BME280;31721;41.740;-88.000;2022-11-20T08:22:24;99971.74;;;-8.49;42.19
45991;BME280;31721;41.740;-88.000;2022-11-20T08:24:53;99978.89;;;-8.54;42.22
45991;BME280;31721;41.740;-88.000;2022-11-20T08:27:20;99985.98;;;-8.49;42.30
45991;BME280;31721;41.740;-88.000;2022-11-20T08:29:48;99991.96;;;-8.35;42.49
45991;BME280;31721;41.740;-88.000;2022-11-20T08:32:16;99996.84;;;-8.24;41.92
45991;BME280;31721;41.740;-88.000;2022-11-20T08:34:44;99996.44;;;-8.28;41.90
45991;BME280;31721;41.740;-88.000;2022-11-20T08:37:12;99999.43;;;-8.15;41.60
45991;BME280;31721;41.740;-88.000;2022-11-20T08:39:40;100001.77;;;-8.15;41.64
45991;BME280;31721;41.740;-88.000;2022-11-20T08:42:08;100002.93;;;-7.97;41.38
45991;BME280;31721;41.740;-88.000;2022-11-20T08:44:36;99996.51;;;-8.15;41.32
45991;BME280;31721;41.740;-88.000;2022-11-20T08:47:04;99998.25;;;-8.06;41.15
45991;BME280;31721;41.740;-88.000;2022-11-20T08:49:32;99999.08;;;-8.22;41.25
45991;BME280;31721;41.740;-88.000;2022-11-20T08:52:00;100003.30;;;-8.28;41.23
45991;BME280;31721;41.740;-88.000;2022-11-20T08:54:28;100002.44;;;-8.43;41.34
45991;BME280;31721;41.740;-88.000;2022-11-20T08:56:56;100000.85;;;-8.51;41.49
45991;BME280;31721;41.740;-88.000;2022-11-20T08:59:24;100001.18;;;-8.55;41.64
45991;BME280;31721;41.740;-88.000;2022-11-20T09:01:52;100005.12;;;-8.56;41.77
45991;BME280;31721;41.740;-88.000;2022-11-20T09:04:20;100005.25;;;-8.63;41.65
45991;BME280;31721;41.740;-88.000;2022-11-20T09:06:48;100004.71;;;-8.68;41.88
45991;BME280;31721;41.740;-88.000;2022-11-20T09:09:17;100013.89;;;-8.59;42.28
45991;BME280;31721;41.740;-88.000;2022-11-20T09:11:45;100006.82;;;-8.64;42.01
45991;BME280;31721;41.740;-88.000;2022-11-20T09:14:13;100011.87;;;-8.58;42.07
45991;BME280;31721;41.740;-88.000;2022-11-20T09:16:41;100013.48;;;-8.78;42.14
45991;BME280;31721;41.740;-88.000;2022-11-20T09:19:09;100009.54;;;-8.59;41.80
45991;BME280;31721;41.740;-88.000;2022-11-20T09:21:37;100018.81;;;-8.54;42.23
45991;BME280;31721;41.740;-88.000;2022-11-20T09:24:05;100019.75;;;-8.50;42.10
45991;BME280;31721;41.740;-88.000;2022-11-20T09:26:33;100023.03;;;-8.55;42.07
45991;BME280;31721;41.740;-88.000;2022-11-20T09:29:01;100024.66;;;-8.42;42.12
45991;BME280;31721;41.740;-88.000;2022-11-20T09:31:29;100027.82;;;-8.51;41.98
45991;BME280;31721;41.740;-88.000;2022-11-20T09:33:57;100024.59;;;-8.26;42.03
45991;BME280;31721;41.740;-88.000;2022-11-20T09:36:25;100029.09;;;-8.02;41.44
45991;BME280;31721;41.740;-88.000;2022-11-20T09:38:53;100030.06;;;-8.17;41.49
45991;BME280;31721;41.740;-88.000;2022-11-20T09:41:40;100029.37;;;-8.37;41.52
45991;BME280;31721;41.740;-88.000;2022-11-20T09:44:24;100030.22;;;-8.38;41.42
45991;BME280;31721;41.740;-88.000;2022-11-20T09:47:01;100028.72;;;-8.11;41.30
45991;BME280;31721;41.740;-88.000;2022-11-20T09:49:39;100032.76;;;-8.04;41.25
45991;BME280;31721;41.740;-88.000;2022-11-20T09:52:20;100033.12;;;-8.16;40.98
45991;BME280;31721;41.740;-88.000;2022-11-20T09:54:50;100034.45;;;-8.04;40.73
45991;BME280;31721;41.740;-88.000;2022-11-20T09:57:20;100033.99;;;-8.36;40.81
45991;BME280;31721;41.740;-88.000;2022-11-20T09:59:53;100036.26;;;-8.77;40.83
45991;BME280;31721;41.740;-88.000;2022-11-20T10:02:28;100038.44;;;-8.91;40.91
45991;BME280;31721;41.740;-88.000;2022-11-20T10:05:01;100040.40;;;-8.96;41.42
45991;BME280;31721;41.740;-88.000;2022-11-20T10:07:35;100044.63;;;-8.78;41.67
45991;BME280;31721;41.740;-88.000;2022-11-20T10:10:05;100050.10;;;-8.60;41.72
45991;BME280;31721;41.740;-88.000;2022-11-20T10:12:53;100056.64;;;-8.73;41.84
45991;BME280;31721;41.740;-88.000;2022-11-20T10:15:31;100057.55;;;-8.69;41.97
45991;BME280;31721;41.740;-88.000;2022-11-20T10:18:26;100054.17;;;-9.01;41.71
45991;BME280;31721;41.740;-88.000;2022-11-20T10:21:05;100050.25;;;-9.02;41.95
45991;BME280;31721;41.740;-88.000;2022-11-20T10:23:50;100053.75;;;-9.22;42.20
45991;BME280;31721;41.740;-88.000;2022-11-20T10:26:28;100052.48;;;-9.24;42.10
45991;BME280;31721;41.740;-88.000;2022-11-20T10:29:08;100058.95;;;-9.34;42.37
45991;BME280;31721;41.740;-88.000;2022-11-20T10:31:40;100064.62;;;-9.41;42.56
45991;BME280;31721;41.740;-88.000;2022-11-20T10:34:19;100061.38;;;-9.34;42.75
45991;BME280;31721;41.740;-88.000;2022-11-20T10:36:52;100062.45;;;-9.44;42.67
45991;BME280;31721;41.740;-88.000;2022-11-20T10:39:28;100062.23;;;-9.37;43.16
45991;BME280;31721;41.740;-88.000;2022-11-20T10:41:58;100057.04;;;-9.45;43.04
45991;BME280;31721;41.740;-88.000;2022-11-20T10:44:28;100055.76;;;-9.25;43.09
45991;BME280;31721;41.740;-88.000;2022-11-20T10:46:56;100062.22;;;-8.96;43.05
45991;BME280;31721;41.740;-88.000;2022-11-20T10:49:24;100063.87;;;-9.14;42.96
45991;BME280;31721;41.740;-88.000;2022-11-20T10:52:02;100056.24;;;-9.23;42.87
45991;BME280;31721;41.740;-88.000;2022-11-20T10:54:38;100066.46;;;-8.90;42.95
45991;BME280;31721;41.740;-88.000;2022-11-20T10:57:15;100068.96;;;-9.04;42.91
45991;BME280;31721;41.740;-88.000;2022-11-20T10:59:57;100068.43;;;-9.11;43.02
45991;BME280;31721;41.740;-88.000;2022-11-20T11:02:34;100077.50;;;-9.03;43.01
45991;BME280;31721;41.740;-88.000;2022-11-20T11:05:12;100071.67;;;-9.23;42.87
45991;BME280;31721;41.740;-88.000;2022-11-20T11:07:45;100079.89;;;-9.10;42.98
45991;BME280;31721;41.740;-88.000;2022-11-20T11:12:54;100086.20;;;-8.96;43.03
45991;BME280;31721;41.740;-88.000;2022-11-20T11:15:27;100085.09;;;-9.19;42.79
45991;BME280;31721;41.740;-88.000;2022-11-20T11:17:57;100086.31;;;-9.15;43.01
45991;BME280;31721;41.740;-88.000;2022-11-20T11:20:25;100091.29;;;-9.00;42.83
45991;BME280;31721;41.740;-88.000;2022-11-20T11:22:55;100089.54;;;-8.99;42.85
45991;BME280;31721;41.740;-88.000;2022-11-20T11:25:27;100086.51;;;-9.18;42.79
45991;BME280;31721;41.740;-88.000;2022-11-20T11:27:59;100087.26;;;-8.98;42.98
45991;BME280;31721;41.740;-88.000;2022-11-20T11:30:28;100085.12;;;-9.18;43.01
45991;BME280;31721;41.740;-88.000;2022-11-20T11:33:05;100080.13;;;-9.23;42.97
45991;BME280;31721;41.740;-88.000;2022-11-20T11:35:33;100090.62;;;-9.16;42.94
45991;BME280;31721;41.740;-88.000;2022-11-20T11:38:06;100091.07;;;-9.31;43.15
45991;BME280;31721;41.740;-88.000;2022-11-20T11:40:35;100083.95;;;-9.47;43.04
45991;BME280;31721;41.740;-88.000;2022-11-20T11:43:07;100093.25;;;-9.63;42.90
45991;BME280;31721;41.740;-88.000;2022-11-20T11:45:52;100089.44;;;-9.71;43.28
45991;BME280;31721;41.740;-88.000;2022-11-20T11:48:21;100104.05;;;-9.79;43.14
45991;BME280;31721;41.740;-88.000;2022-11-20T11:50:50;100101.98;;;-9.81;43.73
45991;BME280;31721;41.740;-88.000;2022-11-20T11:53:20;100104.49;;;-10.08;43.95
45991;BME280;31721;41.740;-88.000;2022-11-20T11:55:54;100112.66;;;-9.71;44.07
45991;BME280;31721;41.740;-88.000;2022-11-20T11:58:38;100110.75;;;-9.70;43.87
45991;BME280;31721;41.740;-88.000;2022-11-20T12:01:20;100110.60;;;-9.61;43.95
45991;BME280;31721;41.740;-88.000;2022-11-20T12:03:58;100111.12;;;-9.58;43.83
45991;BME280;31721;41.740;-88.000;2022-11-20T12:06:28;100114.54;;;-9.66;43.75
45991;BME280;31721;41.740;-88.000;2022-11-20T12:09:01;100121.25;;;-9.72;44.03
45991;BME280;31721;41.740;-88.000;2022-11-20T12:11:34;100133.33;;;-9.69;44.48
45991;BME280;31721;41.740;-88.000;2022-11-20T12:14:11;100126.17;;;-10.03;44.08
45991;BME280;31721;41.740;-88.000;2022-11-20T12:16:40;100131.48;;;-10.07;44.39
45991;BME280;31721;41.740;-88.000;2022-11-20T12:19:11;100129.84;;;-10.13;44.18
45991;BME280;31721;41.740;-88.000;2022-11-20T12:21:51;100137.52;;;-9.99;44.69
45991;BME280;31721;41.740;-88.000;2022-11-20T12:24:34;100140.75;;;-10.00;44.57
45991;BME280;31721;41.740;-88.000;2022-11-20T12:27:35;100144.23;;;-9.86;44.78
45991;BME280;31721;41.740;-88.000;2022-11-20T12:30:09;100143.10;;;-9.61;44.78
45991;BME280;31721;41.740;-88.000;2022-11-20T12:32:52;100156.56;;;-9.51;44.39
45991;BME280;31721;41.740;-88.000;2022-11-20T12:35:37;100149.02;;;-9.59;44.39
45991;BME280;31721;41.740;-88.000;2022-11-20T12:38:29;100161.67;;;-9.54;44.51
45991;BME280;31721;41.740;-88.000;2022-11-20T12:41:08;100156.01;;;-9.52;44.57
45991;BME280;31721;41.740;-88.000;2022-11-20T12:43:45;100150.09;;;-9.62;45.00
45991;BME280;31721;41.740;-88.000;2022-11-20T12:46:27;100152.98;;;-9.84;45.31
45991;BME280;31721;41.740;-88.000;2022-11-20T12:49:07;100162.94;;;-9.97;45.83
45991;BME280;31721;41.740;-88.000;2022-11-20T12:51:51;100157.07;;;-10.08;45.99
45991;BME280;31721;41.740;-88.000;2022-11-20T12:57:38;100175.62;;;-10.34;46.10
45991;BME280;31721;41.740;-88.000;2022-11-20T13:00:14;100178.28;;;-10.32;46.14